logo
Rechercher aéroport 
image banner adimage banner adimage banner ad
image banner ad

EI0012 - Dromoland Castle

Situé à Newmarket-on-Fergus, Ireland

ICAO - , IATA -

Données fournies par Airmate  

Information générale

Coordonnées: N52°47'2" W8°54'17"
Élévation : 75 feet MSL.
Variation magnétique : -3° East
Voir autres Aéroports à County Clare

Données opérationnelles

Special qualification required
Heure actuelle UTC:
Heure actuelle locale:
Météo à : EINN - Shannon ( 9 km )
TAF: TAF EINN 201100Z 2012/2112 VRB03KT 9999 FEW030 PROB40 TEMPO 2016/2021 27010KT SHRA FEW018CB TEMPO 2021/2108 4000 BR BKN006 PROB30 TEMPO 2100/2107 0600 FG BKN002 TEMPO 2108/2112 BKN010
Voir NOTAMs / SUP AIP / TFR affectant cet aéroport [VIEW]
Fréquences de communication: [VIEW]

Pistes:

Coordonnées de l'aéroport

Adresse: Newmarket-on-Fergus Ireland

Vue satellite de EI0012